createdAt,value
2023-10-18T00:01:00.809Z,9.03
2023-10-18T00:03:31.284Z,13.63
2023-10-18T00:06:01.024Z,13.00
2023-10-18T00:08:29.585Z,12.23
2023-10-18T00:11:05.157Z,8.47
2023-10-18T00:13:35.020Z,8.70
2023-10-18T00:16:04.271Z,11.03
2023-10-18T00:18:33.695Z,9.40
2023-10-18T00:21:02.094Z,8.77
2023-10-18T00:23:32.161Z,9.97
2023-10-18T00:26:01.792Z,6.93
2023-10-18T00:28:31.074Z,9.27
2023-10-18T00:30:59.220Z,6.63
2023-10-18T00:33:30.620Z,9.87
2023-10-18T00:35:58.738Z,9.83
2023-10-18T00:38:27.029Z,10.63
2023-10-18T00:40:57.527Z,11.50
2023-10-18T00:43:28.647Z,6.43
2023-10-18T00:45:58.167Z,9.20
2023-10-18T00:48:28.307Z,8.13
2023-10-18T00:51:00.765Z,7.80
2023-10-18T00:53:32.379Z,6.97
2023-10-18T00:56:01.697Z,8.23
2023-10-18T00:58:31.746Z,8.77
2023-10-18T01:01:09.962Z,8.20
2023-10-18T01:03:39.665Z,7.40
2023-10-18T01:06:10.670Z,7.63
2023-10-18T01:08:39.480Z,7.43
2023-10-18T01:11:09.242Z,8.20
2023-10-18T01:13:41.319Z,11.10
2023-10-18T01:16:14.947Z,9.67
2023-10-18T01:18:45.284Z,7.43
2023-10-18T01:21:18.246Z,8.07
2023-10-18T01:23:51.101Z,10.33
2023-10-18T01:26:21.399Z,7.30
2023-10-18T01:28:49.862Z,7.63
2023-10-18T01:31:18.187Z,5.93
2023-10-18T01:33:48.866Z,5.93
2023-10-18T01:36:18.854Z,5.47
2023-10-18T01:38:49.817Z,8.13
2023-10-18T01:41:27.140Z,7.70
2023-10-18T01:44:00.055Z,6.77
2023-10-18T01:46:28.586Z,6.93
2023-10-18T01:48:57.195Z,7.87
2023-10-18T01:51:25.453Z,7.47
2023-10-18T01:53:56.707Z,6.30
2023-10-18T01:56:25.094Z,8.60
2023-10-18T01:58:53.376Z,6.20
2023-10-18T02:01:24.111Z,6.67
2023-10-18T02:03:52.428Z,7.97
2023-10-18T02:06:22.541Z,5.47
2023-10-18T02:08:51.718Z,7.97
2023-10-18T02:11:20.492Z,9.67
2023-10-18T02:13:48.547Z,4.97
2023-10-18T02:16:18.055Z,6.63
2023-10-18T02:18:49.655Z,5.90
2023-10-18T02:21:18.446Z,5.17
2023-10-18T02:23:51.818Z,4.30
2023-10-18T02:26:32.377Z,4.30
2023-10-18T02:29:06.641Z,7.20
2023-10-18T02:31:35.311Z,5.43
2023-10-18T02:34:15.167Z,4.83
2023-10-18T02:36:54.345Z,4.87
2023-10-18T02:39:25.617Z,5.43
2023-10-18T02:41:55.326Z,4.10
2023-10-18T02:44:26.490Z,4.40
2023-10-18T02:46:56.347Z,3.70
2023-10-18T02:49:29.007Z,5.03
2023-10-18T02:51:58.637Z,3.33
2023-10-18T02:54:26.826Z,3.70
2023-10-18T02:56:55.213Z,4.60
2023-10-18T02:59:28.789Z,5.30
2023-10-18T03:01:58.243Z,5.37
2023-10-18T03:04:30.521Z,6.60
2023-10-18T03:06:58.634Z,4.33
2023-10-18T03:09:39.470Z,3.57
2023-10-18T03:12:14.700Z,3.43
2023-10-18T03:14:54.944Z,5.27
2023-10-18T03:17:24.462Z,4.57
2023-10-18T03:19:57.635Z,4.33
2023-10-18T03:22:30.710Z,4.20
2023-10-18T03:25:01.228Z,7.40
2023-10-18T03:27:33.022Z,3.33
2023-10-18T03:30:18.630Z,4.00
2023-10-18T03:32:51.550Z,3.77
2023-10-18T03:35:22.876Z,3.83
2023-10-18T03:37:51.552Z,2.67
2023-10-18T03:40:25.368Z,4.43
2023-10-18T03:42:54.468Z,4.07
2023-10-18T03:45:23.230Z,4.10
2023-10-18T03:47:58.955Z,7.13
2023-10-18T03:50:37.076Z,4.20
2023-10-18T03:53:07.953Z,3.13
2023-10-18T03:55:39.336Z,4.07
2023-10-18T03:58:08.438Z,9.90
2023-10-18T04:00:40.850Z,3.50
2023-10-18T04:03:14.241Z,3.40
2023-10-18T04:05:44.894Z,3.03
2023-10-18T04:08:16.025Z,3.47
2023-10-18T04:10:44.942Z,3.20
2023-10-18T04:13:14.245Z,3.80
2023-10-18T04:15:47.692Z,4.33
2023-10-18T04:18:24.691Z,4.60
2023-10-18T04:20:54.695Z,4.90
2023-10-18T04:23:27.175Z,3.50
2023-10-18T04:26:02.678Z,5.33
2023-10-18T04:28:38.504Z,4.83
2023-10-18T04:31:10.659Z,5.17
2023-10-18T04:33:42.464Z,6.33
2023-10-18T04:36:13.844Z,5.07
2023-10-18T04:38:46.092Z,2.93
2023-10-18T04:41:25.215Z,4.07
2023-10-18T04:43:55.010Z,2.80
2023-10-18T04:46:27.963Z,4.73
2023-10-18T04:49:02.235Z,6.07
2023-10-18T04:51:45.548Z,3.90
2023-10-18T04:54:18.433Z,5.77
2023-10-18T04:56:48.752Z,3.43
2023-10-18T04:59:31.262Z,3.73
2023-10-18T05:01:59.737Z,2.10
2023-10-18T05:04:34.044Z,4.00
2023-10-18T05:07:16.249Z,2.70
2023-10-18T05:09:46.576Z,3.10
2023-10-18T05:12:30.710Z,2.40
2023-10-18T05:15:18.171Z,2.47
2023-10-18T05:17:49.213Z,3.37
2023-10-18T05:20:42.987Z,4.37
2023-10-18T05:23:21.300Z,4.13
2023-10-18T05:25:49.929Z,3.80
2023-10-18T05:28:18.924Z,3.23
2023-10-18T05:31:25.984Z,2.77
2023-10-18T05:33:59.249Z,2.60
2023-10-18T05:36:37.227Z,2.80
2023-10-18T05:39:30.016Z,3.93
2023-10-18T05:42:01.280Z,3.03
2023-10-18T05:44:30.431Z,1.87
2023-10-18T05:46:59.055Z,3.30
2023-10-18T05:49:30.629Z,2.53
2023-10-18T05:52:17.490Z,2.90
2023-10-18T05:54:47.936Z,3.30
2023-10-18T05:57:20.581Z,3.07
2023-10-18T05:59:50.272Z,4.10
2023-10-18T06:02:24.437Z,6.50
2023-10-18T06:04:56.541Z,4.77
2023-10-18T06:07:25.476Z,5.17
2023-10-18T06:10:00.553Z,4.97
2023-10-18T06:12:31.547Z,5.27
2023-10-18T06:15:14.543Z,7.37
2023-10-18T06:17:54.392Z,4.33
2023-10-18T06:20:29.846Z,4.70
2023-10-18T06:23:11.061Z,5.60
2023-10-18T06:25:45.916Z,4.43
2023-10-18T06:28:21.231Z,7.20
2023-10-18T06:30:52.859Z,7.20
2023-10-18T06:33:23.212Z,7.73
2023-10-18T06:35:54.258Z,6.77
2023-10-18T06:38:25.296Z,6.70
2023-10-18T06:41:06.854Z,7.60
2023-10-18T06:43:37.646Z,9.50
2023-10-18T06:46:10.191Z,7.97
2023-10-18T06:48:39.360Z,7.63
2023-10-18T06:51:13.847Z,5.23
2023-10-18T06:53:48.657Z,7.73
2023-10-18T06:56:21.796Z,8.60
2023-10-18T06:58:50.187Z,9.60
2023-10-18T07:01:22.079Z,5.93
2023-10-18T07:03:51.273Z,6.07
2023-10-18T07:06:24.993Z,12.30
2023-10-18T07:08:53.392Z,16.00
2023-10-18T07:11:37.926Z,15.63
2023-10-18T07:14:13.947Z,15.67
2023-10-18T07:16:43.471Z,14.20
2023-10-18T07:19:26.888Z,7.37
2023-10-18T07:21:55.411Z,6.93
2023-10-18T07:24:25.887Z,7.53
2023-10-18T07:26:55.544Z,6.60
2023-10-18T07:29:23.972Z,8.40
2023-10-18T07:31:55.127Z,10.30
2023-10-18T07:34:30.621Z,7.63
2023-10-18T07:36:59.589Z,6.73
2023-10-18T07:39:27.753Z,11.10
2023-10-18T07:41:58.070Z,8.23
2023-10-18T07:44:25.990Z,8.73
2023-10-18T07:46:53.946Z,9.40
2023-10-18T07:49:22.338Z,8.77
2023-10-18T07:51:51.098Z,7.20
2023-10-18T07:54:21.898Z,8.37
2023-10-18T07:56:55.481Z,12.13
2023-10-18T07:59:33.186Z,10.13
2023-10-18T08:02:14.284Z,13.47
2023-10-18T08:04:44.942Z,10.47
2023-10-18T08:07:20.993Z,10.37
2023-10-18T08:09:52.476Z,11.37
2023-10-18T08:12:29.991Z,10.90
2023-10-18T08:14:59.888Z,11.23
2023-10-18T08:17:45.478Z,12.13
2023-10-18T08:20:51.898Z,11.87
2023-10-18T08:23:36.190Z,13.13
2023-10-18T08:26:07.901Z,13.60
2023-10-18T08:28:47.921Z,9.43
2023-10-18T08:31:28.319Z,11.27
2023-10-18T08:33:57.685Z,12.80
2023-10-18T08:36:31.586Z,13.60
2023-10-18T08:39:00.573Z,17.37
2023-10-18T08:41:34.840Z,17.27
2023-10-18T08:44:10.197Z,16.07
2023-10-18T08:46:44.374Z,15.50
2023-10-18T08:49:15.097Z,13.53
2023-10-18T08:51:46.726Z,12.33
2023-10-18T08:54:21.629Z,16.13
2023-10-18T08:56:51.027Z,11.07
2023-10-18T08:59:20.854Z,13.20
2023-10-18T09:02:13.753Z,14.50
2023-10-18T09:04:45.993Z,16.20
2023-10-18T09:07:44.005Z,19.07
2023-10-18T09:10:15.292Z,12.30
2023-10-18T09:13:00.599Z,12.13
2023-10-18T09:15:29.852Z,10.37
2023-10-18T09:18:05.661Z,13.97
2023-10-18T09:20:38.640Z,8.13
2023-10-18T09:23:15.486Z,14.43
2023-10-18T09:25:50.188Z,10.97
2023-10-18T09:28:26.838Z,11.27
2023-10-18T09:31:01.757Z,11.27
2023-10-18T09:33:34.296Z,8.80
2023-10-18T09:36:03.683Z,9.13
2023-10-18T09:38:40.544Z,10.80
2023-10-18T09:41:08.774Z,9.30
2023-10-18T09:43:37.575Z,10.33
2023-10-18T09:46:05.922Z,8.67
2023-10-18T09:48:39.985Z,8.97
2023-10-18T09:51:09.184Z,9.87
2023-10-18T09:53:43.175Z,7.53
2023-10-18T09:56:14.024Z,6.70
2023-10-18T09:58:46.189Z,6.30
2023-10-18T10:01:16.116Z,5.70
2023-10-18T10:03:52.996Z,7.20
2023-10-18T10:06:24.383Z,5.73
2023-10-18T10:08:56.244Z,4.93
2023-10-18T10:11:31.105Z,5.23
2023-10-18T10:14:01.759Z,7.60
2023-10-18T10:16:32.630Z,4.93
2023-10-18T10:19:06.848Z,6.20
2023-10-18T10:21:37.491Z,5.80
2023-10-18T10:24:29.800Z,6.90
2023-10-18T10:27:23.179Z,7.10
2023-10-18T10:29:57.588Z,38.27
2023-10-18T10:32:27.672Z,51.47
2023-10-18T10:35:16.164Z,5.03
2023-10-18T10:37:51.405Z,4.73
2023-10-18T10:40:37.777Z,6.30
2023-10-18T10:43:10.239Z,4.73
2023-10-18T10:45:42.784Z,6.57
2023-10-18T10:48:39.433Z,5.97
2023-10-18T10:51:13.184Z,4.47
2023-10-18T10:53:49.525Z,7.53
2023-10-18T10:56:22.124Z,5.53
2023-10-18T10:58:56.777Z,4.47
2023-10-18T11:01:58.528Z,5.70
2023-10-18T11:04:50.528Z,6.67
2023-10-18T11:07:30.640Z,4.63
2023-10-18T11:10:07.325Z,6.20
2023-10-18T11:12:35.383Z,4.60
2023-10-18T11:15:05.703Z,4.03
2023-10-18T11:17:36.477Z,3.13
2023-10-18T11:20:19.785Z,5.00
2023-10-18T11:22:52.475Z,3.97
2023-10-18T11:25:22.182Z,4.00
2023-10-18T11:27:50.251Z,5.17
2023-10-18T11:30:23.971Z,5.57
2023-10-18T11:32:55.760Z,4.13
2023-10-18T11:35:39.532Z,4.67
2023-10-18T11:38:11.128Z,5.60
2023-10-18T11:40:42.114Z,3.90
2023-10-18T11:43:10.541Z,4.97
2023-10-18T11:45:40.812Z,8.00
2023-10-18T11:48:11.383Z,6.63
2023-10-18T11:50:43.425Z,4.60
2023-10-18T11:53:14.481Z,3.77
2023-10-18T11:55:57.872Z,4.00
2023-10-18T11:58:27.176Z,4.50
2023-10-18T12:00:59.601Z,6.30
2023-10-18T12:03:29.128Z,5.77
2023-10-18T12:05:58.419Z,3.63
2023-10-18T12:08:31.568Z,4.30
2023-10-18T12:11:00.196Z,4.13
2023-10-18T12:13:28.270Z,4.93
2023-10-18T12:16:01.651Z,5.07
2023-10-18T12:18:30.720Z,5.87
2023-10-18T12:20:59.154Z,4.47
2023-10-18T12:23:28.771Z,4.37
2023-10-18T12:26:01.034Z,4.90
2023-10-18T12:28:30.152Z,5.13
2023-10-18T12:31:02.152Z,4.10
2023-10-18T12:33:34.628Z,3.77
2023-10-18T12:36:02.629Z,4.00
2023-10-18T12:38:35.530Z,4.00
2023-10-18T12:41:08.549Z,3.57
2023-10-18T12:43:40.437Z,4.93
2023-10-18T12:46:08.770Z,5.40
2023-10-18T12:48:37.595Z,4.13
2023-10-18T12:51:10.524Z,3.63
2023-10-18T12:56:22.369Z,3.33
2023-10-18T12:58:56.503Z,6.47
2023-10-18T13:01:24.458Z,3.73
2023-10-18T13:03:59.793Z,5.43
2023-10-18T13:06:31.959Z,3.97
2023-10-18T13:09:15.921Z,3.50
2023-10-18T13:11:48.606Z,3.30
2023-10-18T13:14:17.933Z,4.23
2023-10-18T13:16:46.062Z,3.57
2023-10-18T13:19:16.897Z,4.13
2023-10-18T13:21:45.452Z,4.93
2023-10-18T13:24:29.107Z,5.10
2023-10-18T13:27:01.876Z,2.87
2023-10-18T13:29:33.467Z,4.90
2023-10-18T13:32:08.130Z,4.63
2023-10-18T13:34:40.935Z,6.20
2023-10-18T13:37:13.956Z,3.13
2023-10-18T13:39:49.053Z,4.37
2023-10-18T13:42:20.189Z,3.73
2023-10-18T13:44:49.849Z,4.30
2023-10-18T13:47:19.868Z,4.50
2023-10-18T13:49:48.125Z,3.17
2023-10-18T13:52:16.487Z,2.60
2023-10-18T13:54:45.867Z,4.07
2023-10-18T13:57:17.648Z,7.07
2023-10-18T13:59:45.653Z,3.23
2023-10-18T14:02:19.093Z,3.47
2023-10-18T14:04:47.882Z,3.23
2023-10-18T14:07:17.154Z,3.20
2023-10-18T14:09:46.630Z,3.47
2023-10-18T14:12:14.768Z,3.57
2023-10-18T14:14:43.773Z,3.23
2023-10-18T14:17:15.619Z,4.83
2023-10-18T14:19:44.784Z,3.17
2023-10-18T14:22:13.198Z,4.43
2023-10-18T14:24:41.359Z,4.23
2023-10-18T14:27:11.148Z,3.07
2023-10-18T14:29:39.369Z,4.83
2023-10-18T14:32:10.190Z,3.50
2023-10-18T14:34:40.282Z,7.03
2023-10-18T14:37:08.279Z,4.10
2023-10-18T14:39:39.914Z,8.93
2023-10-18T14:42:09.716Z,5.60
2023-10-18T14:44:39.186Z,6.60
2023-10-18T14:47:08.434Z,3.73
2023-10-18T14:49:39.983Z,5.40
2023-10-18T14:52:12.291Z,3.57
2023-10-18T14:54:42.442Z,4.37
2023-10-18T14:57:10.383Z,5.57
2023-10-18T14:59:40.101Z,3.83
2023-10-18T15:02:09.072Z,3.67
2023-10-18T15:04:37.126Z,3.03
2023-10-18T15:07:05.023Z,3.80
2023-10-18T15:09:33.033Z,3.90
2023-10-18T15:12:01.015Z,4.80
2023-10-18T15:14:29.775Z,4.20
2023-10-18T15:17:01.143Z,3.50
2023-10-18T15:19:29.689Z,4.60
2023-10-18T15:21:57.825Z,7.33
2023-10-18T15:24:25.690Z,7.27
2023-10-18T15:26:53.659Z,6.50
2023-10-18T15:29:21.585Z,8.70
2023-10-18T15:31:49.544Z,4.00
2023-10-18T15:34:19.570Z,4.33
2023-10-18T15:36:48.718Z,3.57
2023-10-18T15:39:19.598Z,6.27
2023-10-18T15:41:47.808Z,4.63
2023-10-18T15:44:15.863Z,3.80
2023-10-18T15:46:43.782Z,4.50
2023-10-18T15:49:12.270Z,5.97
2023-10-18T15:51:41.662Z,3.70
2023-10-18T15:54:11.836Z,4.60
2023-10-18T15:56:41.078Z,6.60
2023-10-18T15:59:10.040Z,3.13
2023-10-18T16:01:51.056Z,5.30
2023-10-18T16:04:26.329Z,4.80
2023-10-18T16:06:59.510Z,6.10
2023-10-18T16:09:29.172Z,5.33
2023-10-18T16:11:59.746Z,5.03
2023-10-18T16:14:30.608Z,7.80
2023-10-18T16:17:04.579Z,9.03
2023-10-18T16:19:36.296Z,5.67
2023-10-18T16:22:05.764Z,8.80
2023-10-18T16:24:33.637Z,5.67
2023-10-18T16:27:01.505Z,5.73
2023-10-18T16:29:29.487Z,5.80
2023-10-18T16:32:00.197Z,5.63
2023-10-18T16:34:29.706Z,4.97
2023-10-18T16:36:58.462Z,6.20
2023-10-18T16:39:30.696Z,6.13
2023-10-18T16:41:58.661Z,6.30
2023-10-18T16:44:26.645Z,5.43
2023-10-18T16:46:54.679Z,7.17
2023-10-18T16:49:23.539Z,6.00
2023-10-18T16:51:54.032Z,6.07
2023-10-18T16:54:22.703Z,7.10
2023-10-18T16:56:52.029Z,5.73
2023-10-18T16:59:21.176Z,4.33
2023-10-18T17:01:49.484Z,6.57
2023-10-18T17:04:18.643Z,6.57
2023-10-18T17:06:47.106Z,7.53
2023-10-18T17:09:19.085Z,7.03
2023-10-18T17:11:47.212Z,6.70
2023-10-18T17:14:17.454Z,7.97
2023-10-18T17:16:46.564Z,5.73
2023-10-18T17:19:15.925Z,7.50
2023-10-18T17:21:44.639Z,9.10
2023-10-18T17:24:12.741Z,6.90
2023-10-18T17:26:40.827Z,6.50
2023-10-18T17:29:10.656Z,5.93
2023-10-18T17:31:40.116Z,5.97
2023-10-18T17:34:12.655Z,6.27
2023-10-18T17:36:41.483Z,9.17
2023-10-18T17:39:10.698Z,7.23
2023-10-18T17:41:38.768Z,7.47
2023-10-18T17:44:06.946Z,9.43
2023-10-18T17:46:36.181Z,7.63
2023-10-18T17:49:06.364Z,9.10
2023-10-18T17:51:34.272Z,5.73
2023-10-18T17:54:02.696Z,6.07
2023-10-18T17:56:31.548Z,6.90
2023-10-18T17:59:05.957Z,7.57
2023-10-18T18:01:35.380Z,7.43
2023-10-18T18:04:03.648Z,8.43
2023-10-18T18:06:33.185Z,8.23
2023-10-18T18:09:01.572Z,6.40
2023-10-18T18:11:31.470Z,7.57
2023-10-18T18:13:59.892Z,7.30
2023-10-18T18:16:28.213Z,6.40
2023-10-18T18:18:58.763Z,6.23
2023-10-18T18:21:28.496Z,8.70
2023-10-18T18:23:58.138Z,8.50
2023-10-18T18:26:28.184Z,7.63
2023-10-18T18:28:59.206Z,7.87
2023-10-18T18:31:27.534Z,8.73
2023-10-18T18:33:55.531Z,7.37
2023-10-18T18:36:23.494Z,8.70
2023-10-18T18:38:52.711Z,9.13
2023-10-18T18:41:22.079Z,8.10
2023-10-18T18:43:50.039Z,9.70
2023-10-18T18:46:31.488Z,8.30
2023-10-18T18:49:07.789Z,9.37
2023-10-18T18:51:36.353Z,9.93
2023-10-18T18:54:04.650Z,12.50
2023-10-18T18:56:34.962Z,9.33
2023-10-18T18:59:03.035Z,22.43
2023-10-18T19:01:31.203Z,9.00
2023-10-18T19:03:59.357Z,10.07
2023-10-18T19:06:27.334Z,9.33
2023-10-18T19:08:55.245Z,9.83
2023-10-18T19:11:27.279Z,11.50
2023-10-18T19:13:57.059Z,11.97
2023-10-18T19:16:25.074Z,13.10
2023-10-18T19:18:54.709Z,8.07
2023-10-18T19:21:22.683Z,8.13
2023-10-18T19:23:50.536Z,10.50
2023-10-18T19:26:19.787Z,9.93
2023-10-18T19:28:50.573Z,11.63
2023-10-18T19:31:21.597Z,9.20
2023-10-18T19:33:50.479Z,7.90
2023-10-18T19:36:19.381Z,8.80
2023-10-18T19:38:47.875Z,8.83
2023-10-18T19:41:18.393Z,9.97
2023-10-18T19:43:47.292Z,9.87
2023-10-18T19:46:15.843Z,10.63
2023-10-18T19:48:45.304Z,9.70
2023-10-18T19:51:16.714Z,8.33
2023-10-18T19:53:45.735Z,9.03
2023-10-18T19:56:14.857Z,10.43
2023-10-18T19:58:43.502Z,9.40
2023-10-18T20:01:11.520Z,9.40
2023-10-18T20:03:40.630Z,10.43
2023-10-18T20:06:10.151Z,9.33
2023-10-18T20:08:38.227Z,8.37
2023-10-18T20:11:07.588Z,9.57
2023-10-18T20:13:35.830Z,10.37
2023-10-18T20:16:03.942Z,7.83
2023-10-18T20:18:32.223Z,13.47
2023-10-18T20:21:01.045Z,9.30
2023-10-18T20:23:31.831Z,13.00
2023-10-18T20:26:01.411Z,8.27
2023-10-18T20:28:30.542Z,13.30
2023-10-18T20:31:00.374Z,10.97
2023-10-18T20:33:28.483Z,9.87
2023-10-18T20:35:56.468Z,12.90
2023-10-18T20:38:25.431Z,12.13
2023-10-18T20:40:55.999Z,14.13
2023-10-18T20:43:26.381Z,8.40
2023-10-18T20:46:03.015Z,11.77
2023-10-18T20:48:31.492Z,10.87
2023-10-18T20:51:00.525Z,10.33
2023-10-18T20:53:28.497Z,10.37
2023-10-18T20:55:58.871Z,10.60
2023-10-18T20:58:28.462Z,12.83
2023-10-18T21:00:57.224Z,12.53
2023-10-18T21:03:25.796Z,12.37
2023-10-18T21:05:55.307Z,10.07
2023-10-18T21:08:24.135Z,11.07
2023-10-18T21:10:52.186Z,11.37
2023-10-18T21:13:22.962Z,10.27
2023-10-18T21:15:51.294Z,15.00
2023-10-18T21:18:21.338Z,7.97
2023-10-18T21:20:50.100Z,13.93
2023-10-18T21:23:18.400Z,10.23
2023-10-18T21:25:46.395Z,7.60
2023-10-18T21:28:15.296Z,11.70
2023-10-18T21:30:44.713Z,9.93
2023-10-18T21:33:12.745Z,10.57
2023-10-18T21:35:40.716Z,9.50
2023-10-18T21:38:08.838Z,11.83
2023-10-18T21:40:36.991Z,9.50
2023-10-18T21:43:08.379Z,11.07
2023-10-18T21:45:36.737Z,9.93
2023-10-18T21:48:07.005Z,8.63
2023-10-18T21:50:36.523Z,11.60
2023-10-18T21:53:05.477Z,11.50
2023-10-18T21:55:33.804Z,16.33
2023-10-18T21:58:01.869Z,12.47
2023-10-18T22:00:40.196Z,11.43
2023-10-18T22:03:11.830Z,12.43
2023-10-18T22:05:43.647Z,13.43
2023-10-18T22:08:16.722Z,10.23
2023-10-18T22:10:46.194Z,9.53
2023-10-18T22:13:15.521Z,11.30
2023-10-18T22:15:50.379Z,11.07
2023-10-18T22:18:21.193Z,13.27
2023-10-18T22:20:49.180Z,12.27
2023-10-18T22:23:17.192Z,13.73
2023-10-18T22:26:02.071Z,13.20
2023-10-18T22:28:36.264Z,14.13
2023-10-18T22:31:07.623Z,10.60
2023-10-18T22:33:37.965Z,13.03
2023-10-18T22:36:08.508Z,14.87
2023-10-18T22:38:41.539Z,13.30
2023-10-18T22:41:14.014Z,14.33
2023-10-18T22:43:42.567Z,13.20
2023-10-18T22:46:31.013Z,16.50
2023-10-18T22:49:02.903Z,12.03
2023-10-18T22:51:35.136Z,12.80
2023-10-18T22:54:08.512Z,16.60
2023-10-18T22:59:30.533Z,11.30
2023-10-18T23:01:59.727Z,13.70
2023-10-18T23:04:27.911Z,14.53
2023-10-18T23:06:58.575Z,13.43
2023-10-18T23:09:27.929Z,14.97
2023-10-18T23:11:58.834Z,13.97
2023-10-18T23:14:29.059Z,13.97
2023-10-18T23:17:13.427Z,17.10
2023-10-18T23:19:46.640Z,16.00
2023-10-18T23:22:32.928Z,16.17
2023-10-18T23:25:20.977Z,15.67
2023-10-18T23:28:06.112Z,14.93
2023-10-18T23:30:40.313Z,14.60
2023-10-18T23:36:14.978Z,18.17
2023-10-18T23:38:44.612Z,15.77
2023-10-18T23:41:29.418Z,13.67
2023-10-18T23:44:09.624Z,11.27
2023-10-18T23:46:59.432Z,14.53
2023-10-18T23:49:30.390Z,14.53
2023-10-18T23:52:18.690Z,16.07
2023-10-18T23:54:50.310Z,16.83
2023-10-18T23:57:18.269Z,14.10
2023-10-18T23:59:49.278Z,14.13
